createdAt,value
2018-10-11T00:00:53.472Z,23.98
2018-10-11T00:03:23.711Z,23.40
2018-10-11T00:05:53.412Z,25.85
2018-10-11T00:08:23.460Z,26.90
2018-10-11T00:10:53.158Z,26.50
2018-10-11T00:13:22.891Z,24.63
2018-10-11T00:15:52.626Z,24.65
2018-10-11T00:18:22.350Z,23.60
2018-10-11T00:20:52.062Z,24.45
2018-10-11T00:23:21.803Z,24.23
2018-10-11T00:25:51.521Z,23.75
2018-10-11T00:28:21.235Z,23.70
2018-10-11T00:30:51.021Z,27.37
2018-10-11T00:33:20.878Z,25.20
2018-10-11T00:35:50.667Z,26.07
2018-10-11T00:38:20.389Z,28.83
2018-10-11T00:40:50.086Z,25.02
2018-10-11T00:43:19.834Z,22.30
2018-10-11T00:45:49.518Z,26.65
2018-10-11T00:48:19.232Z,27.87
2018-10-11T00:50:48.929Z,24.87
2018-10-11T00:53:18.656Z,25.35
2018-10-11T00:55:48.660Z,25.57
2018-10-11T00:58:18.368Z,23.07
2018-10-11T01:00:48.079Z,24.77
2018-10-11T01:03:17.838Z,26.23
2018-10-11T01:05:47.558Z,24.20
2018-10-11T01:08:17.315Z,30.65
2018-10-11T01:10:47.323Z,27.22
2018-10-11T01:13:17.075Z,33.02
2018-10-11T01:15:46.786Z,26.82
2018-10-11T01:18:16.564Z,24.45
2018-10-11T01:20:47.838Z,28.00
2018-10-11T01:23:19.370Z,27.55
2018-10-11T01:25:49.862Z,26.50
2018-10-11T01:28:25.552Z,25.97
2018-10-11T01:31:00.568Z,24.00
2018-10-11T01:33:30.279Z,27.30
2018-10-11T01:35:59.979Z,26.68
2018-10-11T01:38:29.707Z,26.45
2018-10-11T01:40:59.497Z,22.02
2018-10-11T01:43:29.259Z,27.27
2018-10-11T01:45:58.979Z,28.05
2018-10-11T01:48:28.726Z,23.85
2018-10-11T01:50:58.456Z,26.10
2018-10-11T01:53:28.163Z,25.10
2018-10-11T01:55:57.879Z,27.55
2018-10-11T01:58:27.749Z,30.17
2018-10-11T02:00:57.571Z,26.97
2018-10-11T02:03:27.281Z,25.75
2018-10-11T02:05:57.027Z,33.65
2018-10-11T02:08:26.748Z,25.80
2018-10-11T02:10:56.481Z,26.30
2018-10-11T02:13:26.204Z,23.35
2018-10-11T02:15:56.216Z,28.45
2018-10-11T02:18:25.932Z,27.48
2018-10-11T02:20:55.661Z,27.98
2018-10-11T02:23:25.398Z,27.82
2018-10-11T02:25:55.074Z,28.27
2018-10-11T02:28:24.834Z,31.42
2018-10-11T02:30:54.531Z,30.35
2018-10-11T02:33:24.285Z,29.12
2018-10-11T02:35:54.047Z,29.77
2018-10-11T02:38:23.851Z,36.08
2018-10-11T02:40:55.140Z,28.02
2018-10-11T02:43:25.299Z,30.10
2018-10-11T02:45:54.992Z,30.70
2018-10-11T02:48:24.723Z,32.13
2018-10-11T02:50:54.448Z,36.85
2018-10-11T02:53:24.279Z,30.20
2018-10-11T02:55:54.032Z,35.75
2018-10-11T02:58:35.003Z,31.95
2018-10-11T03:01:04.775Z,31.48
2018-10-11T03:03:34.634Z,29.90
2018-10-11T03:06:04.666Z,31.48
2018-10-11T03:08:34.955Z,31.85
2018-10-11T03:11:05.048Z,30.95
2018-10-11T03:13:34.772Z,30.12
2018-10-11T03:16:04.880Z,27.55
2018-10-11T03:18:34.625Z,30.72
2018-10-11T03:21:04.547Z,29.42
2018-10-11T03:23:34.316Z,28.67
2018-10-11T03:26:04.128Z,28.98
2018-10-11T03:28:33.840Z,30.65
2018-10-11T03:31:03.580Z,32.90
2018-10-11T03:33:33.291Z,29.87
2018-10-11T03:36:03.036Z,28.75
2018-10-11T03:38:32.731Z,30.40
2018-10-11T03:41:02.487Z,27.75
2018-10-11T03:43:32.203Z,28.10
2018-10-11T03:46:01.961Z,32.40
2018-10-11T03:48:31.663Z,24.85
2018-10-11T03:51:01.389Z,29.10
2018-10-11T03:53:31.072Z,27.05
2018-10-11T03:56:00.808Z,24.75
2018-10-11T03:58:30.669Z,25.48
2018-10-11T04:01:00.460Z,25.05
2018-10-11T04:03:30.228Z,27.22
2018-10-11T04:05:59.990Z,27.90
2018-10-11T04:08:29.711Z,28.95
2018-10-11T04:10:59.463Z,24.37
2018-10-11T04:13:29.183Z,27.98
2018-10-11T04:15:58.900Z,27.05
2018-10-11T04:18:28.619Z,30.12
2018-10-11T04:20:58.391Z,24.92
2018-10-11T04:23:30.159Z,23.90
2018-10-11T04:26:00.599Z,23.95
2018-10-11T04:28:30.478Z,28.90
2018-10-11T04:31:00.506Z,24.82
2018-10-11T04:33:30.207Z,24.52
2018-10-11T04:36:00.035Z,21.85
2018-10-11T04:38:29.859Z,23.25
2018-10-11T04:40:59.605Z,23.25
2018-10-11T04:43:29.324Z,21.12
2018-10-11T04:45:59.144Z,21.10
2018-10-11T04:48:28.873Z,23.90
2018-10-11T04:50:58.570Z,25.80
2018-10-11T04:53:28.363Z,22.95
2018-10-11T04:56:00.536Z,24.92
2018-10-11T04:58:30.495Z,23.22
2018-10-11T05:01:00.227Z,20.62
2018-10-11T05:03:29.926Z,22.07
2018-10-11T05:05:59.929Z,20.37
2018-10-11T05:08:29.965Z,21.87
2018-10-11T05:11:00.048Z,21.93
2018-10-11T05:13:37.116Z,25.48
2018-10-11T05:16:07.223Z,22.32
2018-10-11T05:18:39.727Z,21.97
2018-10-11T05:21:10.248Z,21.95
2018-10-11T05:23:40.777Z,20.92
2018-10-11T05:26:10.686Z,24.37
2018-10-11T05:28:40.755Z,22.52
2018-10-11T05:31:11.157Z,22.95
2018-10-11T05:33:41.842Z,18.75
2018-10-11T05:36:11.806Z,19.67
2018-10-11T05:38:41.624Z,19.27
2018-10-11T05:41:12.027Z,21.25
2018-10-11T05:43:41.905Z,20.17
2018-10-11T05:46:17.720Z,19.15
2018-10-11T05:48:47.524Z,18.12
2018-10-11T05:51:18.264Z,18.32
2018-10-11T05:53:48.092Z,17.23
2018-10-11T05:56:18.980Z,20.08
2018-10-11T05:58:49.819Z,20.75
2018-10-11T06:01:19.731Z,18.50
2018-10-11T06:03:49.891Z,20.70
2018-10-11T06:06:19.666Z,18.25
2018-10-11T06:08:49.751Z,16.65
2018-10-11T06:11:19.666Z,15.45
2018-10-11T06:13:49.919Z,16.15
2018-10-11T06:16:20.003Z,16.25
2018-10-11T06:18:50.136Z,15.48
2018-10-11T06:21:19.900Z,16.52
2018-10-11T06:23:50.363Z,16.20
2018-10-11T06:26:20.124Z,18.23
2018-10-11T06:28:50.250Z,17.48
2018-10-11T06:31:20.385Z,14.53
2018-10-11T06:33:50.168Z,15.10
2018-10-11T06:36:20.074Z,16.73
2018-10-11T06:38:49.859Z,13.78
2018-10-11T06:41:19.742Z,13.40
2018-10-11T06:43:49.479Z,13.80
2018-10-11T06:46:19.301Z,14.95
2018-10-11T06:48:49.096Z,13.53
2018-10-11T06:51:18.885Z,14.05
2018-10-11T06:53:48.719Z,13.95
2018-10-11T06:56:18.459Z,14.00
2018-10-11T06:58:48.416Z,13.35
2018-10-11T07:01:18.163Z,12.95
2018-10-11T07:03:47.868Z,12.07
2018-10-11T07:06:17.619Z,11.63
2018-10-11T07:08:47.330Z,11.85
2018-10-11T07:11:17.076Z,11.15
2018-10-11T07:13:46.820Z,11.80
2018-10-11T07:16:16.727Z,12.00
2018-10-11T07:18:46.452Z,11.63
2018-10-11T07:21:16.562Z,11.97
2018-10-11T07:23:46.276Z,12.45
2018-10-11T07:26:16.054Z,12.37
2018-10-11T07:28:45.799Z,12.05
2018-10-11T07:31:15.495Z,11.50
2018-10-11T07:33:45.220Z,10.38
2018-10-11T07:36:14.903Z,9.58
2018-10-11T07:38:44.609Z,10.13
2018-10-11T07:41:14.305Z,9.23
2018-10-11T07:43:44.016Z,10.05
2018-10-11T07:46:13.708Z,9.65
2018-10-11T07:48:43.508Z,9.43
2018-10-11T07:51:13.180Z,9.48
2018-10-11T07:53:42.923Z,9.83
2018-10-11T07:56:12.652Z,13.65
2018-10-11T07:58:42.615Z,10.80
2018-10-11T08:01:12.363Z,9.23
2018-10-11T08:03:42.210Z,9.60
2018-10-11T08:06:11.952Z,9.65
2018-10-11T08:08:41.667Z,11.05
2018-10-11T08:11:11.393Z,9.55
2018-10-11T08:13:41.401Z,9.90
2018-10-11T08:16:11.297Z,8.40
2018-10-11T08:18:41.131Z,8.55
2018-10-11T08:21:11.016Z,8.30
2018-10-11T08:23:40.708Z,8.15
2018-10-11T08:26:11.290Z,8.95
2018-10-11T08:28:40.923Z,7.83
2018-10-11T08:31:11.514Z,8.23
2018-10-11T08:33:41.209Z,11.40
2018-10-11T08:36:10.876Z,7.25
2018-10-11T08:38:40.677Z,6.80
2018-10-11T08:41:10.487Z,7.42
2018-10-11T08:43:40.238Z,7.92
2018-10-11T08:46:10.071Z,7.72
2018-10-11T08:48:39.775Z,8.45
2018-10-11T08:51:09.537Z,7.95
2018-10-11T08:53:39.295Z,7.83
2018-10-11T08:56:09.174Z,7.28
2018-10-11T08:58:39.030Z,7.83
2018-10-11T09:01:08.744Z,7.35
2018-10-11T09:03:38.463Z,8.23
2018-10-11T09:06:08.407Z,8.15
2018-10-11T09:08:38.083Z,7.67
2018-10-11T09:11:07.806Z,8.10
2018-10-11T09:13:37.670Z,7.15
2018-10-11T09:16:07.361Z,7.62
2018-10-11T09:18:37.019Z,7.20
2018-10-11T09:21:07.756Z,7.50
2018-10-11T09:23:37.419Z,7.67
2018-10-11T09:26:07.627Z,7.12
2018-10-11T09:28:37.295Z,7.37
2018-10-11T09:31:07.249Z,8.10
2018-10-11T09:33:36.948Z,7.42
2018-10-11T09:36:06.754Z,7.75
2018-10-11T09:38:36.437Z,7.85
2018-10-11T09:41:06.338Z,9.28
2018-10-11T09:43:36.016Z,8.70
2018-10-11T09:46:06.071Z,8.23
2018-10-11T09:48:35.764Z,8.50
2018-10-11T09:51:05.734Z,9.25
2018-10-11T09:53:35.408Z,9.15
2018-10-11T09:56:05.127Z,8.88
2018-10-11T09:58:34.811Z,8.30
2018-10-11T10:01:09.872Z,8.93
2018-10-11T10:03:39.543Z,9.30
2018-10-11T10:06:09.282Z,9.23
2018-10-11T10:08:38.992Z,8.88
2018-10-11T10:11:08.702Z,9.20
2018-10-11T10:13:38.399Z,7.95
2018-10-11T10:16:08.128Z,9.28
2018-10-11T10:18:37.790Z,8.30
2018-10-11T10:21:07.558Z,7.03
2018-10-11T10:23:37.396Z,6.30
2018-10-11T10:26:07.436Z,6.83
2018-10-11T10:28:37.035Z,6.65
2018-10-11T10:31:06.762Z,6.03
2018-10-11T10:33:36.456Z,5.20
2018-10-11T10:36:06.167Z,5.42
2018-10-11T10:38:35.973Z,6.50
2018-10-11T10:41:05.699Z,6.10
2018-10-11T10:43:35.395Z,6.37
2018-10-11T10:46:05.115Z,5.92
2018-10-11T10:48:34.800Z,5.35
2018-10-11T10:51:04.526Z,6.53
2018-10-11T10:53:34.232Z,7.45
2018-10-11T10:56:03.968Z,7.03
2018-10-11T10:58:33.688Z,9.28
2018-10-11T11:01:03.419Z,8.43
2018-10-11T11:03:33.128Z,6.97
2018-10-11T11:06:02.865Z,6.50
2018-10-11T11:08:32.568Z,6.62
2018-10-11T11:11:02.348Z,6.17
2018-10-11T11:13:32.073Z,6.83
2018-10-11T11:16:01.840Z,6.85
2018-10-11T11:18:31.532Z,6.17
2018-10-11T11:21:01.295Z,7.53
2018-10-11T11:23:30.994Z,6.60
2018-10-11T11:26:00.715Z,5.92
2018-10-11T11:28:30.407Z,7.10
2018-10-11T11:31:00.201Z,6.78
2018-10-11T11:33:30.032Z,6.33
2018-10-11T11:35:59.768Z,5.83
2018-10-11T11:38:29.488Z,5.72
2018-10-11T11:40:59.247Z,5.92
2018-10-11T11:43:28.968Z,6.58
2018-10-11T11:45:58.777Z,6.33
2018-10-11T11:48:28.642Z,6.12
2018-10-11T11:51:03.912Z,6.28
2018-10-11T11:53:40.250Z,6.15
2018-10-11T11:56:10.263Z,6.20
2018-10-11T11:58:45.596Z,6.62
2018-10-11T12:01:15.404Z,6.20
2018-10-11T12:03:50.837Z,7.10
2018-10-11T12:06:20.839Z,5.90
2018-10-11T12:08:50.559Z,6.28
2018-10-11T12:11:21.393Z,6.05
2018-10-11T12:13:55.284Z,9.63
2018-10-11T12:16:25.042Z,6.28
2018-10-11T12:18:54.903Z,5.78
2018-10-11T12:21:25.162Z,5.95
2018-10-11T12:23:54.841Z,6.42
2018-10-11T12:26:25.484Z,5.80
2018-10-11T12:28:55.772Z,5.92
2018-10-11T12:31:25.694Z,5.72
2018-10-11T12:33:59.810Z,6.12
2018-10-11T12:36:29.592Z,5.22
2018-10-11T12:38:59.471Z,5.47
2018-10-11T12:41:29.652Z,6.03
2018-10-11T12:43:59.323Z,6.03
2018-10-11T12:46:34.751Z,6.12
2018-10-11T12:49:04.180Z,5.70
2018-10-11T12:51:38.843Z,5.62
2018-10-11T12:54:09.214Z,5.60
2018-10-11T12:56:39.185Z,5.62
2018-10-11T12:59:09.537Z,5.25
2018-10-11T13:01:50.976Z,5.40
2018-10-11T13:04:21.620Z,5.55
2018-10-11T13:06:51.715Z,4.95
2018-10-11T13:09:21.781Z,6.00
2018-10-11T13:11:54.152Z,5.42
2018-10-11T13:14:25.081Z,5.05
2018-10-11T13:16:55.954Z,5.15
2018-10-11T13:19:26.147Z,5.50
2018-10-11T13:21:55.866Z,5.20
2018-10-11T13:24:25.629Z,4.70
2018-10-11T13:26:55.647Z,5.15
2018-10-11T13:29:25.378Z,6.15
2018-10-11T13:31:55.145Z,5.05
2018-10-11T13:34:24.891Z,4.80
2018-10-11T13:36:54.683Z,4.75
2018-10-11T13:39:24.479Z,5.90
2018-10-11T13:41:54.345Z,6.87
2018-10-11T13:44:24.199Z,5.25
2018-10-11T13:46:53.960Z,5.15
2018-10-11T13:49:23.759Z,4.80
2018-10-11T13:51:53.566Z,4.60
2018-10-11T13:54:23.310Z,5.17
2018-10-11T13:56:58.014Z,5.17
2018-10-11T13:59:24.250Z,5.50
2018-10-11T14:01:54.305Z,5.20
2018-10-11T14:04:24.136Z,6.62
2018-10-11T14:06:56.402Z,5.58
2018-10-11T14:09:27.926Z,6.42
2018-10-11T14:12:02.020Z,5.58
2018-10-11T14:14:32.132Z,5.08
2018-10-11T14:17:01.839Z,5.08
2018-10-11T14:19:33.056Z,5.22
2018-10-11T14:22:02.744Z,5.37
2018-10-11T14:24:32.476Z,5.15
2018-10-11T14:27:02.173Z,5.00
2018-10-11T14:29:31.864Z,5.17
2018-10-11T14:32:01.532Z,5.70
2018-10-11T14:34:31.244Z,5.28
2018-10-11T14:37:01.164Z,5.47
2018-10-11T14:39:30.975Z,5.08
2018-10-11T14:42:00.791Z,6.05
2018-10-11T14:44:30.976Z,5.28
2018-10-11T14:47:01.243Z,5.62
2018-10-11T14:49:30.956Z,5.45
2018-10-11T14:52:00.692Z,4.85
2018-10-11T14:54:33.999Z,4.72
2018-10-11T14:57:05.485Z,5.20
2018-10-11T14:59:35.776Z,4.90
2018-10-11T15:02:05.526Z,5.50
2018-10-11T15:04:35.292Z,6.15
2018-10-11T15:07:05.154Z,5.40
2018-10-11T15:09:35.224Z,5.70
2018-10-11T15:12:04.991Z,5.65
2018-10-11T15:14:34.803Z,5.92
2018-10-11T15:17:04.694Z,5.65
2018-10-11T15:19:34.487Z,6.47
2018-10-11T15:22:04.382Z,6.28
2018-10-11T15:24:34.177Z,7.62
2018-10-11T15:27:04.011Z,4.95
2018-10-11T15:29:33.888Z,5.60
2018-10-11T15:32:03.740Z,5.50
2018-10-11T15:34:33.564Z,7.75
2018-10-11T15:37:03.651Z,6.30
2018-10-11T15:39:33.399Z,6.17
2018-10-11T15:42:03.160Z,6.12
2018-10-11T15:44:32.907Z,6.67
2018-10-11T15:47:02.736Z,5.83
2018-10-11T15:49:32.726Z,5.85
2018-10-11T15:52:02.497Z,5.95
2018-10-11T15:54:32.435Z,5.90
2018-10-11T15:57:02.490Z,5.62
2018-10-11T15:59:32.531Z,6.55
2018-10-11T16:02:02.327Z,6.33
2018-10-11T16:04:32.038Z,6.65
2018-10-11T16:07:01.784Z,6.72
2018-10-11T16:09:31.828Z,6.00
2018-10-11T16:12:01.882Z,6.22
2018-10-11T16:14:31.777Z,6.87
2018-10-11T16:17:01.536Z,6.37
2018-10-11T16:19:31.286Z,5.65
2018-10-11T16:22:02.131Z,5.83
2018-10-11T16:24:32.155Z,5.80
2018-10-11T16:27:01.938Z,7.33
2018-10-11T16:29:31.984Z,7.92
2018-10-11T16:32:01.858Z,6.45
2018-10-11T16:34:31.828Z,6.42
2018-10-11T16:37:01.698Z,6.62
2018-10-11T16:39:31.423Z,6.00
2018-10-11T16:42:01.514Z,8.40
2018-10-11T16:44:31.570Z,6.40
2018-10-11T16:47:01.388Z,7.30
2018-10-11T16:49:31.128Z,5.65
2018-10-11T16:52:02.625Z,5.67
2018-10-11T16:54:32.396Z,7.50
2018-10-11T16:57:02.459Z,6.17
2018-10-11T16:59:32.499Z,8.10
2018-10-11T17:02:02.514Z,6.50
2018-10-11T17:04:32.370Z,8.98
2018-10-11T17:07:01.803Z,9.08
2018-10-11T17:09:31.967Z,7.65
2018-10-11T17:12:02.236Z,6.35
2018-10-11T17:14:32.046Z,7.37
2018-10-11T17:17:01.821Z,9.15
2018-10-11T17:19:31.606Z,9.05
2018-10-11T17:22:01.488Z,8.50
2018-10-11T17:24:32.090Z,9.35
2018-10-11T17:27:02.781Z,6.78
2018-10-11T17:29:32.793Z,6.78
2018-10-11T17:32:03.751Z,6.30
2018-10-11T17:34:34.080Z,8.73
2018-10-11T17:37:04.121Z,6.97
2018-10-11T17:39:34.409Z,6.80
2018-10-11T17:42:04.649Z,7.47
2018-10-11T17:44:34.749Z,9.08
2018-10-11T17:47:05.051Z,7.35
2018-10-11T17:49:35.210Z,7.92
2018-10-11T17:52:05.419Z,7.53
2018-10-11T17:54:35.665Z,7.37
2018-10-11T17:57:05.885Z,7.72
2018-10-11T17:59:35.617Z,8.05
2018-10-11T18:02:05.805Z,7.42
2018-10-11T18:04:36.193Z,9.70
2018-10-11T18:07:06.422Z,8.63
2018-10-11T18:09:36.149Z,8.03
2018-10-11T18:12:05.918Z,7.12
2018-10-11T18:14:35.714Z,7.30
2018-10-11T18:17:09.401Z,8.88
2018-10-11T18:19:39.350Z,8.90
2018-10-11T18:22:09.118Z,7.97
2018-10-11T18:24:38.904Z,6.45
2018-10-11T18:27:09.003Z,6.60
2018-10-11T18:29:38.892Z,7.33
2018-10-11T18:32:09.419Z,12.78
2018-10-11T18:34:39.304Z,9.95
2018-10-11T18:37:09.707Z,12.73
2018-10-11T18:39:39.578Z,13.75
2018-10-11T18:42:09.562Z,7.60
2018-10-11T18:44:39.574Z,10.20
2018-10-11T18:47:09.915Z,8.23
2018-10-11T18:49:39.940Z,8.63
2018-10-11T18:52:09.692Z,8.68
2018-10-11T18:54:39.891Z,7.72
2018-10-11T18:57:09.711Z,9.13
2018-10-11T18:59:39.446Z,7.70
2018-10-11T19:02:10.264Z,7.60
2018-10-11T19:04:40.061Z,7.50
2018-10-11T19:07:10.572Z,8.15
2018-10-11T19:09:59.030Z,7.05
2018-10-11T19:12:29.090Z,6.90
2018-10-11T19:14:58.828Z,6.80
2018-10-11T19:17:28.880Z,6.70
2018-10-11T19:19:58.606Z,7.22
2018-10-11T19:22:28.382Z,6.87
2018-10-11T19:24:58.159Z,7.40
2018-10-11T19:27:27.900Z,7.12
2018-10-11T19:29:57.912Z,7.50
2018-10-11T19:32:28.076Z,6.62
2018-10-11T19:34:58.111Z,7.12
2018-10-11T19:37:27.886Z,7.22
2018-10-11T19:39:57.632Z,7.60
2018-10-11T19:42:27.777Z,7.78
2018-10-11T19:44:58.192Z,7.30
2018-10-11T19:47:28.199Z,7.08
2018-10-11T19:49:58.246Z,7.42
2018-10-11T19:52:28.110Z,8.88
2018-10-11T19:54:57.972Z,9.45
2018-10-11T19:57:28.004Z,7.87
2018-10-11T19:59:58.991Z,8.23
2018-10-11T20:02:28.781Z,8.10
2018-10-11T20:04:58.591Z,7.50
2018-10-11T20:07:28.355Z,7.87
2018-10-11T20:09:58.158Z,7.25
2018-10-11T20:12:27.906Z,7.17
2018-10-11T20:14:57.980Z,7.12
2018-10-11T20:17:27.713Z,8.08
2018-10-11T20:19:57.465Z,7.58
2018-10-11T20:22:27.483Z,9.30
2018-10-11T20:24:57.524Z,8.00
2018-10-11T20:27:27.314Z,8.23
2018-10-11T20:29:57.362Z,7.50
2018-10-11T20:32:27.110Z,7.92
2018-10-11T20:34:56.929Z,7.83
2018-10-11T20:37:26.960Z,7.90
2018-10-11T20:39:57.000Z,7.92
2018-10-11T20:42:27.295Z,8.53
2018-10-11T20:44:57.080Z,7.03
2018-10-11T20:47:26.798Z,7.80
2018-10-11T20:49:56.876Z,7.47
2018-10-11T20:52:26.587Z,8.25
2018-10-11T20:54:57.351Z,7.62
2018-10-11T20:57:27.625Z,8.10
2018-10-11T20:59:58.109Z,8.23
2018-10-11T21:02:28.175Z,7.87
2018-10-11T21:04:58.220Z,7.47
2018-10-11T21:07:28.681Z,7.37
2018-10-11T21:09:58.739Z,6.97
2018-10-11T21:12:28.759Z,7.05
2018-10-11T21:14:58.492Z,7.55
2018-10-11T21:17:28.187Z,6.17
2018-10-11T21:19:57.983Z,6.75
2018-10-11T21:22:27.902Z,6.25
2018-10-11T21:24:57.726Z,7.67
2018-10-11T21:27:27.533Z,6.05
2018-10-11T21:29:57.330Z,5.85
2018-10-11T21:32:27.026Z,6.30
2018-10-11T21:34:56.779Z,9.48
2018-10-11T21:37:26.528Z,8.90
2018-10-11T21:39:56.575Z,7.42
2018-10-11T21:42:26.280Z,12.82
2018-10-11T21:44:56.042Z,7.05
2018-10-11T21:47:25.824Z,8.68
2018-10-11T21:49:55.523Z,6.65
2018-10-11T21:52:25.290Z,7.47
2018-10-11T21:54:55.139Z,7.25
2018-10-11T21:57:24.817Z,7.78
2018-10-11T21:59:54.578Z,6.67
2018-10-11T22:02:24.472Z,6.70
2018-10-11T22:04:54.199Z,6.90
2018-10-11T22:07:23.909Z,7.53
2018-10-11T22:09:53.626Z,7.37
2018-10-11T22:12:24.407Z,7.20
2018-10-11T22:14:54.399Z,6.87
2018-10-11T22:17:24.222Z,7.08
2018-10-11T22:19:53.963Z,7.47
2018-10-11T22:22:23.647Z,7.97
2018-10-11T22:24:53.360Z,8.08
2018-10-11T22:27:23.093Z,7.62
2018-10-11T22:29:52.842Z,7.75
2018-10-11T22:32:22.555Z,7.80
2018-10-11T22:34:52.262Z,8.38
2018-10-11T22:37:21.976Z,8.30
2018-10-11T22:39:51.718Z,7.95
2018-10-11T22:42:21.471Z,8.48
2018-10-11T22:44:55.080Z,8.73
2018-10-11T22:47:24.872Z,8.45
2018-10-11T22:49:54.682Z,8.30
2018-10-11T22:52:24.427Z,8.55
2018-10-11T22:54:54.108Z,8.20
2018-10-11T22:57:24.163Z,8.95
2018-10-11T22:59:53.890Z,8.70
2018-10-11T23:02:23.596Z,8.15
2018-10-11T23:04:53.283Z,8.58
2018-10-11T23:07:22.979Z,7.70
2018-10-11T23:09:52.644Z,8.30
2018-10-11T23:12:22.379Z,7.35
2018-10-11T23:14:52.095Z,8.50
2018-10-11T23:17:22.011Z,7.95
2018-10-11T23:19:51.711Z,8.63
2018-10-11T23:22:21.428Z,9.75
2018-10-11T23:24:51.117Z,10.53
2018-10-11T23:27:21.198Z,10.72
2018-10-11T23:29:50.891Z,9.43
2018-10-11T23:32:20.595Z,9.40
2018-10-11T23:34:50.319Z,9.50
2018-10-11T23:37:20.038Z,9.20
2018-10-11T23:39:49.707Z,10.28
2018-10-11T23:42:19.410Z,9.58
2018-10-11T23:44:49.108Z,9.45
2018-10-11T23:47:18.827Z,10.48
2018-10-11T23:49:48.540Z,10.43
2018-10-11T23:52:18.970Z,10.35
2018-10-11T23:54:48.674Z,9.68
2018-10-11T23:57:18.383Z,8.95
2018-10-11T23:59:48.076Z,10.13
